Time;durP1;ratioP1;P1;durP2;ratioP2;P2;SDS_P1;SDS_P2;PMS_P1;PMS_P2;Temp;Humidity;BMP_temperature;BMP_pressure;BME280_temperature;BME280_humidity;BME280_pressure;Samples;Min_cycle;Max_cycle;Signal;HPM_P1;HPM_P2
2022/06/24 00:00:44;;;;;;;37.33;21.77;;;17.40;99.90;;;;;;4972059;28;20168;-64
2022/06/24 00:03:16;;;;;;;37.90;21.40;;;17.40;99.90;;;;;;4972092;28;20260;-64
2022/06/24 00:05:42;;;;;;;35.83;21.33;;;17.40;99.90;;;;;;4971721;28;20230;-64
2022/06/24 00:08:08;;;;;;;45.58;21.83;;;17.40;99.90;;;;;;4971985;28;20258;-64
2022/06/24 00:10:35;;;;;;;35.60;22.70;;;17.40;99.90;;;;;;4971963;28;20173;-63
2022/06/24 00:13:03;;;;;;;41.63;23.15;;;17.40;99.90;;;;;;4971848;28;20250;-64
2022/06/24 00:15:34;;;;;;;47.80;23.85;;;17.30;99.90;;;;;;4971886;28;20199;-64
2022/06/24 00:18:18;;;;;;;43.63;23.42;;;17.20;99.90;;;;;;4971828;28;20225;-64
2022/06/24 00:20:46;;;;;;;39.70;23.80;;;17.20;99.90;;;;;;4971952;28;20230;-65
2022/06/24 00:23:13;;;;;;;43.17;25.33;;;17.20;99.90;;;;;;4972035;28;20246;-64
2022/06/24 00:25:39;;;;;;;42.70;25.15;;;17.30;99.90;;;;;;4971858;28;20192;-64
2022/06/24 00:28:10;;;;;;;42.25;24.90;;;17.20;99.90;;;;;;4971799;28;20164;-64
2022/06/24 00:30:50;;;;;;;43.25;24.77;;;17.10;99.90;;;;;;4971619;28;20515;-64
2022/06/24 00:33:24;;;;;;;45.03;25.33;;;17.00;99.90;;;;;;4971736;28;20180;-65
2022/06/24 00:35:58;;;;;;;43.08;24.98;;;17.10;99.90;;;;;;4971729;28;20198;-65
2022/06/24 00:38:33;;;;;;;41.08;24.30;;;17.00;99.90;;;;;;4971570;28;20303;-64
2022/06/24 00:41:10;;;;;;;41.55;23.50;;;17.00;99.90;;;;;;4971717;28;20231;-65
2022/06/24 00:43:45;;;;;;;41.22;22.70;;;17.00;99.90;;;;;;4971711;28;20176;-65
2022/06/24 00:46:29;;;;;;;39.75;23.88;;;17.00;99.90;;;;;;4971990;28;20175;-65
2022/06/24 00:48:57;;;;;;;43.40;24.67;;;17.10;99.90;;;;;;4971673;28;20664;-65
2022/06/24 00:51:30;;;;;;;47.75;24.90;;;17.10;99.90;;;;;;4971609;28;20319;-64
2022/06/24 00:53:56;;;;;;;46.80;25.52;;;17.00;99.90;;;;;;4971608;28;20243;-65
2022/06/24 00:56:27;;;;;;;43.10;24.95;;;17.00;99.90;;;;;;4974356;28;20180;-64
2022/06/24 00:58:54;;;;;;;41.72;24.58;;;17.00;99.90;;;;;;4975208;28;20223;-65
2022/06/24 01:01:38;;;;;;;40.58;24.60;;;17.00;99.90;;;;;;4975130;28;20168;-65
2022/06/24 01:04:07;;;;;;;42.47;24.80;;;17.00;99.90;;;;;;4975054;28;20191;-64
2022/06/24 01:06:34;;;;;;;41.67;23.40;;;16.90;99.90;;;;;;4974936;28;20278;-64
2022/06/24 01:09:00;;;;;;;42.38;23.27;;;16.90;99.90;;;;;;4975157;28;20180;-64
2022/06/24 01:11:41;;;;;;;43.53;22.23;;;17.00;99.90;;;;;;4974906;28;20271;-64
2022/06/24 01:14:08;;;;;;;41.42;21.35;;;16.90;99.90;;;;;;4974941;28;20188;-64
2022/06/24 01:16:34;;;;;;;38.78;21.50;;;17.00;99.90;;;;;;4974683;28;20528;-65
2022/06/24 01:19:05;;;;;;;38.90;20.83;;;17.00;99.90;;;;;;4974833;28;20184;-65
2022/06/24 01:21:39;;;;;;;37.45;21.13;;;17.00;99.90;;;;;;4974825;28;20191;-65
2022/06/24 01:24:08;;;;;;;33.45;19.92;;;17.00;99.90;;;;;;4974706;28;20192;-65
2022/06/24 01:26:36;;;;;;;31.83;18.48;;;16.90;99.90;;;;;;4974683;28;20255;-65
2022/06/24 01:29:02;;;;;;;36.83;19.65;;;16.90;99.90;;;;;;4974528;28;20168;-64
2022/06/24 01:31:28;;;;;;;30.35;19.25;;;16.80;99.90;;;;;;4974529;28;20203;-66
2022/06/24 01:33:54;;;;;;;29.95;19.60;;;16.80;99.90;;;;;;4974431;28;20199;-64
2022/06/24 01:36:20;;;;;;;31.00;18.95;;;16.80;99.90;;;;;;4974422;28;20183;-65
2022/06/24 01:38:45;;;;;;;29.00;18.90;;;16.80;99.90;;;;;;4974295;28;20183;-65
2022/06/24 01:41:11;;;;;;;35.47;19.90;;;16.80;99.90;;;;;;4973198;28;20383;-66
2022/06/24 01:43:37;;;;;;;34.10;19.08;;;16.80;99.90;;;;;;4974336;28;20283;-65
2022/06/24 01:46:02;;;;;;;29.55;19.20;;;16.80;99.90;;;;;;4974591;28;20180;-65
2022/06/24 01:48:28;;;;;;;33.30;20.30;;;16.80;99.90;;;;;;4974314;28;20631;-65
2022/06/24 01:50:55;;;;;;;32.13;19.40;;;16.80;99.90;;;;;;4974129;28;20600;-65
2022/06/24 01:53:20;;;;;;;39.10;20.23;;;16.80;99.90;;;;;;4974238;28;20176;-65
2022/06/24 01:55:46;;;;;;;38.10;20.67;;;16.70;99.90;;;;;;4974199;28;20508;-65
2022/06/24 01:58:12;;;;;;;53.22;21.98;;;16.60;99.90;;;;;;4972651;28;20292;-65
2022/06/24 02:00:38;;;;;;;38.05;20.98;;;16.70;99.90;;;;;;4974052;28;20307;-65
2022/06/24 02:03:07;;;;;;;43.97;21.45;;;16.70;99.90;;;;;;4974052;28;20164;-65
2022/06/24 02:05:33;;;;;;;41.58;22.20;;;;;;;;;;4972620;28;20295;-64
2022/06/24 02:07:58;;;;;;;33.03;22.25;;;16.80;99.90;;;;;;4973261;28;20187;-64
2022/06/24 02:13:28;;;;;;;33.22;22.05;;;16.70;99.90;;;;;;4974062;28;20238;-65
2022/06/24 02:16:00;;;;;;;38.20;21.60;;;16.70;99.90;;;;;;4973766;28;20200;-64
2022/06/24 02:18:27;;;;;;;37.90;21.17;;;17.90;99.90;;;;;;4973543;28;20227;-64
2022/06/24 02:20:52;;;;;;;36.72;20.58;;;16.80;99.90;;;;;;4973715;28;20187;-64
2022/06/24 02:23:19;;;;;;;37.40;21.20;;;16.80;99.90;;;;;;4956103;28;20276;-64
2022/06/24 02:25:46;;;;;;;38.63;20.42;;;16.80;99.90;;;;;;4973565;28;20629;-64
2022/06/24 02:28:12;;;;;;;32.92;19.27;;;16.80;99.90;;;;;;4973686;28;20184;-64
2022/06/24 02:30:38;;;;;;;36.55;19.40;;;16.90;99.90;;;;;;4973534;28;20202;-64
2022/06/24 02:33:05;;;;;;;34.78;19.80;;;16.90;99.90;;;;;;4973529;28;20172;-64
2022/06/24 02:35:31;;;;;;;38.05;19.83;;;16.90;99.90;;;;;;4973446;28;20194;-64
2022/06/24 02:37:57;;;;;;;28.50;17.90;;;16.90;99.90;;;;;;4973211;28;20208;-64
2022/06/24 02:43:15;;;;;;;28.90;18.30;;;16.90;99.90;;;;;;4973536;28;20202;-65
2022/06/24 02:45:42;;;;;;;31.70;17.90;;;16.90;99.90;;;;;;4973179;28;20186;-64
2022/06/24 02:48:08;;;;;;;29.77;17.80;;;16.80;99.90;;;;;;4973179;28;20541;-64
2022/06/24 02:50:44;;;;;;;27.58;17.15;;;16.90;99.90;;;;;;4973050;28;20242;-65
2022/06/24 02:53:10;;;;;;;29.98;17.77;;;16.90;99.90;;;;;;4973037;28;20168;-64
2022/06/24 02:55:37;;;;;;;34.30;19.38;;;16.90;99.90;;;;;;4973058;28;20176;-63
2022/06/24 02:58:04;;;;;;;30.00;19.10;;;16.90;99.90;;;;;;4972865;28;20215;-63
2022/06/24 03:00:30;;;;;;;33.67;19.17;;;16.80;99.90;;;;;;4971573;28;20694;-64
2022/06/24 03:02:56;;;;;;;36.50;19.02;;;16.80;99.90;;;;;;4972848;28;20635;-63
2022/06/24 03:05:22;;;;;;;34.88;18.95;;;16.80;99.90;;;;;;4972669;28;20219;-63
2022/06/24 03:07:48;;;;;;;31.15;19.42;;;16.70;99.90;;;;;;4972991;28;20176;-64
2022/06/24 03:10:15;;;;;;;32.22;19.48;;;16.70;99.90;;;;;;4972700;28;20164;-64
2022/06/24 03:12:41;;;;;;;29.83;18.30;;;16.70;99.90;;;;;;4972672;28;20176;-64
2022/06/24 03:15:08;;;;;;;33.05;19.23;;;16.70;99.90;;;;;;4972640;28;20215;-64
2022/06/24 03:17:34;;;;;;;29.33;18.60;;;16.70;99.90;;;;;;4972399;28;20218;-65
2022/06/24 03:19:59;;;;;;;26.67;17.67;;;16.60;99.90;;;;;;4972803;28;20172;-64
2022/06/24 03:22:25;;;;;;;32.53;18.67;;;16.60;99.90;;;;;;4972445;28;20642;-63
2022/06/24 03:24:51;;;;;;;29.77;18.50;;;16.70;99.90;;;;;;4972621;28;20168;-64
2022/06/24 03:27:16;;;;;;;33.88;18.52;;;16.60;99.90;;;;;;4972574;28;20175;-64
2022/06/24 03:29:42;;;;;;;35.00;18.90;;;16.60;99.90;;;;;;4972832;28;20171;-63
2022/06/24 03:32:08;;;;;;;29.45;18.15;;;16.60;99.90;;;;;;4972382;28;20282;-64
2022/06/24 03:34:34;;;;;;;38.80;18.73;;;16.60;99.90;;;;;;4972302;28;20690;-63
2022/06/24 03:37:00;;;;;;;32.92;18.85;;;16.50;99.90;;;;;;4972159;28;20207;-64
2022/06/24 03:39:26;;;;;;;28.10;18.45;;;16.50;99.90;;;;;;4972355;28;20168;-64
2022/06/24 03:41:51;;;;;;;29.23;17.55;;;16.50;99.90;;;;;;4972546;28;20595;-64
2022/06/24 03:44:17;;;;;;;27.33;18.05;;;16.60;99.90;;;;;;4972616;28;20176;-64
2022/06/24 03:46:43;;;;;;;27.40;17.63;;;18.30;99.90;;;;;;4972566;28;20206;-64
2022/06/24 03:49:08;;;;;;;29.25;16.70;;;16.50;99.90;;;;;;4972648;28;20198;-65
2022/06/24 03:51:35;;;;;;;26.33;17.50;;;16.50;99.90;;;;;;4972456;28;20190;-66
2022/06/24 03:54:01;;;;;;;27.42;15.88;;;16.50;99.90;;;;;;4973037;28;20235;-63
2022/06/24 03:56:27;;;;;;;25.52;16.77;;;16.60;99.90;;;;;;4973086;28;20651;-63
2022/06/24 03:58:53;;;;;;;31.35;16.40;;;16.50;99.90;;;;;;4972371;28;20270;-64
2022/06/24 04:01:19;;;;;;;27.15;16.02;;;16.60;99.90;;;;;;4972124;28;20226;-64
2022/06/24 04:03:45;;;;;;;22.38;14.48;;;16.60;99.90;;;;;;4972137;28;20172;-63
2022/06/24 04:06:11;;;;;;;20.75;13.48;;;16.60;99.90;;;;;;4971876;28;20215;-66
2022/06/24 04:08:36;;;;;;;24.42;12.88;;;16.60;99.90;;;;;;4972009;28;20246;-63
2022/06/24 04:11:15;;;;;;;19.85;13.05;;;16.60;99.90;;;;;;4972153;28;20254;-64
2022/06/24 04:13:42;;;;;;;19.55;12.15;;;16.60;99.90;;;;;;4971980;28;20183;-64
2022/06/24 04:16:07;;;;;;;18.98;12.35;;;16.60;99.90;;;;;;4972081;28;20219;-64
2022/06/24 04:18:33;;;;;;;22.35;11.73;;;16.60;99.90;;;;;;4971819;28;20215;-64
2022/06/24 04:20:59;;;;;;;21.00;11.52;;;16.60;99.90;;;;;;4972068;28;20178;-64
2022/06/24 04:23:25;;;;;;;17.83;10.18;;;16.60;99.90;;;;;;4971936;28;20561;-64
2022/06/24 04:25:51;;;;;;;21.10;11.00;;;16.60;99.90;;;;;;4972571;28;20567;-63
2022/06/24 04:28:17;;;;;;;16.15;10.55;;;16.60;99.90;;;;;;4972265;28;20173;-64
2022/06/24 04:30:43;;;;;;;16.15;10.13;;;16.60;99.90;;;;;;4974476;28;20263;-64
2022/06/24 04:33:09;;;;;;;17.73;11.07;;;16.60;99.90;;;;;;4958317;28;20523;-63
2022/06/24 04:35:35;;;;;;;18.67;10.32;;;16.60;99.90;;;;;;4975596;28;20230;-64
2022/06/24 04:38:01;;;;;;;21.60;10.52;;;16.70;99.90;;;;;;4975483;28;20212;-64
2022/06/24 04:40:26;;;;;;;21.35;10.75;;;16.70;99.90;;;;;;4975853;28;20512;-63
2022/06/24 04:42:52;;;;;;;19.30;10.38;;;16.70;99.90;;;;;;4975417;28;20180;-63
2022/06/24 04:45:18;;;;;;;15.45;10.60;;;16.70;99.90;;;;;;4975427;28;20176;-64
2022/06/24 04:47:43;;;;;;;13.52;10.13;;;16.70;99.90;;;;;;4975367;28;20176;-63
2022/06/24 04:50:10;;;;;;;16.95;10.65;;;16.70;99.90;;;;;;4975381;28;20176;-63
2022/06/24 04:52:36;;;;;;;17.42;11.13;;;16.70;99.90;;;;;;4975272;28;20183;-63
2022/06/24 04:55:02;;;;;;;22.35;12.18;;;16.70;99.90;;;;;;4975313;28;20219;-64
2022/06/24 04:57:28;;;;;;;21.55;12.40;;;16.70;99.90;;;;;;4975085;28;20230;-64
2022/06/24 04:59:54;;;;;;;21.33;12.43;;;16.70;99.90;;;;;;4975227;28;20554;-63
2022/06/24 05:02:20;;;;;;;19.50;11.98;;;;;;;;;;4975170;28;20188;-63
2022/06/24 05:04:46;;;;;;;20.17;11.02;;;16.70;99.90;;;;;;4974943;28;20176;-63
2022/06/24 05:07:12;;;;;;;21.35;12.10;;;16.70;99.90;;;;;;4975017;28;20376;-64
2022/06/24 05:09:37;;;;;;;27.88;11.68;;;16.70;99.90;;;;;;4975031;28;20259;-63
2022/06/24 05:12:03;;;;;;;20.15;10.88;;;16.80;99.90;;;;;;4974785;28;20549;-63
2022/06/24 05:14:30;;;;;;;17.90;11.15;;;16.70;99.90;;;;;;4957513;28;20168;-64
2022/06/24 05:16:56;;;;;;;18.30;11.15;;;16.60;99.90;;;;;;4975031;28;20613;-65
2022/06/24 05:19:22;;;;;;;19.80;11.30;;;16.70;99.90;;;;;;4957366;28;20721;-64
2022/06/24 05:21:48;;;;;;;27.52;13.88;;;16.70;99.90;;;;;;4974776;28;20176;-64
2022/06/24 05:24:14;;;;;;;20.90;13.55;;;16.80;99.90;;;;;;4974697;28;20203;-64
2022/06/24 05:26:46;;;;;;;27.40;15.77;;;16.80;99.90;;;;;;4974555;28;20176;-64
2022/06/24 05:29:12;;;;;;;29.77;16.33;;;16.80;99.90;;;;;;4974835;28;20172;-64
2022/06/24 05:31:38;;;;;;;29.52;16.20;;;16.90;99.90;;;;;;4974608;28;20239;-64
2022/06/24 05:34:04;;;;;;;31.48;18.17;;;16.80;99.90;;;;;;4974538;28;20208;-64
2022/06/24 05:36:30;;;;;;;31.30;18.77;;;16.80;99.90;;;;;;4974418;28;20203;-63
2022/06/24 05:38:55;;;;;;;30.45;17.45;;;16.80;99.90;;;;;;4957125;28;20203;-65
2022/06/24 05:41:22;;;;;;;36.38;18.33;;;16.80;99.90;;;;;;4973372;28;20183;-64
2022/06/24 05:43:48;;;;;;;27.23;18.52;;;16.80;99.90;;;;;;4974583;28;20184;-63
2022/06/24 05:46:15;;;;;;;30.73;18.55;;;16.80;99.90;;;;;;4974375;28;20678;-64
2022/06/24 05:48:40;;;;;;;33.03;19.77;;;16.90;99.90;;;;;;4974598;28;20183;-63
2022/06/24 05:51:11;;;;;;;29.00;19.05;;;16.90;99.90;;;;;;4974088;28;20176;-64
2022/06/24 05:56:23;;;;;;;30.70;19.35;;;17.00;99.90;;;;;;4974299;28;20242;-63
2022/06/24 05:58:48;;;;;;;32.78;19.58;;;17.00;99.90;;;;;;4974189;28;20279;-65
2022/06/24 06:01:14;;;;;;;29.50;18.40;;;17.00;99.90;;;;;;4974337;28;20247;-65
2022/06/24 06:03:41;;;;;;;28.25;18.95;;;17.00;99.90;;;;;;4974122;28;20176;-64
2022/06/24 06:06:07;;;;;;;28.77;17.73;;;17.10;99.90;;;;;;4973754;28;20232;-63
2022/06/24 06:08:34;;;;;;;33.45;18.73;;;17.10;99.90;;;;;;4973855;28;20665;-64
2022/06/24 06:11:00;;;;;;;25.60;17.25;;;17.00;99.90;;;;;;4974187;28;20179;-63
2022/06/24 06:13:26;;;;;;;25.60;17.20;;;17.00;99.90;;;;;;4973753;28;20697;-64
2022/06/24 06:15:51;;;;;;;30.65;17.92;;;16.90;99.90;;;;;;4973736;28;20180;-64
2022/06/24 06:18:17;;;;;;;27.38;17.83;;;16.90;99.90;;;;;;4973671;28;20215;-64
2022/06/24 06:20:42;;;;;;;33.90;17.52;;;16.90;99.90;;;;;;4973644;28;20164;-64
2022/06/24 06:23:08;;;;;;;28.73;16.73;;;16.90;99.90;;;;;;4973538;28;20263;-64
2022/06/24 06:25:34;;;;;;;27.42;15.50;;;16.70;99.90;;;;;;4973556;28;20171;-64
2022/06/24 06:28:02;;;;;;;23.73;14.57;;;16.90;99.90;;;;;;4973557;28;20176;-64
2022/06/24 06:30:29;;;;;;;24.20;14.88;;;16.90;99.90;;;;;;4973409;28;20267;-63
2022/06/24 06:32:55;;;;;;;23.83;12.77;;;16.80;99.90;;;;;;4973436;28;20180;-64
2022/06/24 06:35:20;;;;;;;18.92;11.30;;;16.60;99.90;;;;;;4973283;28;20179;-62
2022/06/24 06:37:46;;;;;;;16.73;10.80;;;16.60;99.90;;;;;;4973178;28;20694;-64
2022/06/24 06:40:12;;;;;;;20.00;9.43;;;16.60;99.90;;;;;;4973233;28;20184;-63
2022/06/24 06:42:37;;;;;;;19.33;8.68;;;16.50;99.90;;;;;;4973326;28;20183;-63
2022/06/24 06:45:04;;;;;;;15.77;8.15;;;16.60;99.90;;;;;;4973238;28;20195;-63
2022/06/24 06:47:29;;;;;;;12.20;7.82;;;16.50;99.90;;;;;;4973087;28;20176;-64
2022/06/24 06:49:55;;;;;;;12.15;7.13;;;16.40;99.90;;;;;;4973136;28;20191;-63
2022/06/24 06:52:21;;;;;;;14.32;7.97;;;16.40;99.90;;;;;;4972852;28;20180;-63
2022/06/24 06:54:46;;;;;;;14.20;7.45;;;16.20;99.90;;;;;;4972970;28;20585;-63
2022/06/24 06:57:12;;;;;;;12.30;7.32;;;16.20;99.90;;;;;;4972927;28;20246;-64
2022/06/24 06:59:38;;;;;;;13.85;7.28;;;16.20;99.90;;;;;;4973042;28;20184;-64
2022/06/24 07:02:04;;;;;;;12.90;7.22;;;16.00;99.90;;;;;;4972942;28;20186;-64
2022/06/24 07:04:29;;;;;;;15.77;7.43;;;16.20;99.90;;;;;;4972886;28;20212;-63
2022/06/24 07:06:55;;;;;;;11.57;7.00;;;16.20;99.90;;;;;;4972625;28;20699;-64
2022/06/24 07:09:21;;;;;;;14.43;7.68;;;16.20;99.90;;;;;;4972794;28;20172;-64
2022/06/24 07:11:46;;;;;;;15.82;7.85;;;16.20;99.90;;;;;;4972434;28;20191;-63
2022/06/24 07:14:12;;;;;;;12.65;7.43;;;16.20;99.90;;;;;;4972529;28;20182;-64
2022/06/24 07:16:38;;;;;;;15.45;8.15;;;16.20;99.90;;;;;;4972470;28;20555;-64
2022/06/24 07:19:03;;;;;;;20.40;8.73;;;16.20;99.90;;;;;;4972564;28;21015;-64
2022/06/24 07:21:29;;;;;;;15.38;8.63;;;16.30;99.90;;;;;;4972500;28;20550;-63
2022/06/24 07:23:55;;;;;;;18.75;10.60;;;16.20;99.90;;;;;;4972613;28;20239;-63
2022/06/24 07:26:21;;;;;;;24.80;9.88;;;16.20;99.90;;;;;;4972485;28;20658;-63
2022/06/24 07:28:47;;;;;;;25.75;10.93;;;16.30;99.90;;;;;;4972466;28;20591;-64
2022/06/24 07:31:17;;;;;;;25.58;10.60;;;16.30;99.90;;;;;;4972232;28;20254;-64
2022/06/24 07:33:44;;;;;;;18.10;11.60;;;16.40;99.90;;;;;;4972189;28;20180;-63
2022/06/24 07:36:10;;;;;;;19.33;11.48;;;16.30;99.90;;;;;;4972345;28;20655;-64
2022/06/24 07:38:36;;;;;;;19.70;12.07;;;16.30;99.90;;;;;;4972343;28;20223;-63
2022/06/24 07:41:02;;;;;;;18.80;11.15;;;16.40;99.90;;;;;;4972272;28;20176;-63
2022/06/24 07:43:28;;;;;;;19.27;11.30;;;;;;;;;;4972148;28;20615;-64
2022/06/24 07:45:54;;;;;;;20.40;12.02;;;16.40;99.90;;;;;;4972063;28;20175;-64
2022/06/24 07:48:20;;;;;;;25.25;12.75;;;16.40;99.90;;;;;;4972075;28;20168;-64
2022/06/24 07:50:45;;;;;;;25.25;12.52;;;16.40;99.90;;;;;;4972028;28;20172;-64
2022/06/24 07:53:11;;;;;;;18.48;12.65;;;16.50;99.90;;;;;;4972224;28;20183;-64
2022/06/24 07:58:21;;;;;;;23.17;12.27;;;16.40;99.90;;;;;;4972090;28;20347;-64
2022/06/24 08:00:48;;;;;;;17.90;10.98;;;16.50;99.90;;;;;;4972157;28;20637;-64
2022/06/24 08:03:16;;;;;;;18.40;11.35;;;16.60;99.90;;;;;;4972328;28;20322;-64
2022/06/24 08:05:42;;;;;;;19.63;11.18;;;16.70;99.90;;;;;;4971105;28;20228;-64
2022/06/24 08:08:09;;;;;;;20.25;10.90;;;16.80;99.90;;;;;;4972050;28;20517;-64
2022/06/24 08:10:35;;;;;;;22.38;11.07;;;16.90;99.90;;;;;;4972016;28;20187;-64
2022/06/24 08:13:01;;;;;;;20.00;11.05;;;17.00;99.90;;;;;;4971949;28;20250;-64
2022/06/24 08:15:26;;;;;;;20.48;10.98;;;17.20;99.90;;;;;;4971930;28;20183;-64
2022/06/24 08:17:52;;;;;;;16.17;10.05;;;17.20;99.90;;;;;;4972236;28;20216;-64
2022/06/24 08:20:18;;;;;;;21.83;10.77;;;17.40;99.90;;;;;;4971888;28;20631;-64
2022/06/24 08:22:44;;;;;;;18.15;10.32;;;;;;;;;;4971777;28;20594;-63
2022/06/24 08:25:09;;;;;;;20.73;10.00;;;17.60;99.90;;;;;;4971760;28;20263;-63
2022/06/24 08:27:35;;;;;;;16.88;9.48;;;17.60;99.90;;;;;;4971786;28;20267;-65
2022/06/24 08:30:03;;;;;;;16.52;9.45;;;17.60;99.90;;;;;;4954006;28;20211;-64
2022/06/24 08:32:29;;;;;;;16.27;9.32;;;17.70;99.90;;;;;;4971822;28;20278;-64
2022/06/24 08:34:55;;;;;;;16.00;8.98;;;17.80;99.90;;;;;;4971775;28;20251;-64
2022/06/24 08:37:21;;;;;;;16.63;9.07;;;17.60;99.90;;;;;;4971824;28;20303;-64
2022/06/24 08:39:46;;;;;;;13.40;8.15;;;17.70;99.90;;;;;;4971822;28;20207;-65
2022/06/24 08:42:12;;;;;;;17.60;9.02;;;17.80;99.90;;;;;;4971592;28;20184;-64
2022/06/24 08:44:40;;;;;;;18.88;9.52;;;17.70;99.90;;;;;;4954155;28;20286;-64
2022/06/24 08:47:06;;;;;;;17.45;9.50;;;17.70;99.90;;;;;;4971713;28;20168;-65
2022/06/24 08:49:32;;;;;;;13.40;9.07;;;17.80;99.90;;;;;;4971825;28;20180;-65
2022/06/24 08:52:00;;;;;;;18.42;9.63;;;17.80;99.90;;;;;;4971459;28;20675;-64
2022/06/24 08:54:32;;;;;;;18.13;9.63;;;17.90;99.90;;;;;;4971667;28;20180;-65
2022/06/24 08:56:58;;;;;;;21.75;10.20;;;17.80;99.90;;;;;;4971473;28;20188;-64
2022/06/24 08:59:27;;;;;;;18.77;10.43;;;17.80;99.90;;;;;;4971534;28;20191;-64
2022/06/24 09:01:53;;;;;;;17.02;10.25;;;17.80;99.90;;;;;;4970264;28;20307;-65
2022/06/24 09:04:23;;;;;;;17.52;11.07;;;17.80;99.90;;;;;;4971464;28;20250;-64
2022/06/24 09:06:48;;;;;;;21.92;13.00;;;17.70;99.90;;;;;;4971242;28;20227;-65
2022/06/24 09:09:25;;;;;;;23.33;12.45;;;17.70;99.90;;;;;;4971309;28;20542;-64
2022/06/24 09:11:54;;;;;;;23.80;13.27;;;17.70;99.90;;;;;;4971496;28;20179;-64
2022/06/24 09:14:20;;;;;;;19.63;12.80;;;17.70;99.90;;;;;;4971233;28;20737;-65
2022/06/24 09:16:46;;;;;;;19.77;12.27;;;17.70;99.90;;;;;;4973144;28;20176;-64
2022/06/24 09:19:14;;;;;;;21.13;12.75;;;17.70;99.90;;;;;;4974693;28;20535;-64
2022/06/24 09:21:42;;;;;;;23.38;10.85;;;17.80;99.90;;;;;;4974702;28;20177;-64
2022/06/24 09:24:09;;;;;;;19.52;12.23;;;17.90;99.90;;;;;;4974682;28;20168;-64
2022/06/24 09:26:40;;;;;;;22.85;12.45;;;17.80;99.90;;;;;;4974917;28;20263;-65
2022/06/24 09:29:13;;;;;;;25.20;13.48;;;17.80;99.90;;;;;;4974967;28;20183;-64
2022/06/24 09:31:40;;;;;;;25.08;13.98;;;17.50;99.90;;;;;;4974839;28;20184;-64
2022/06/24 09:34:14;;;;;;;24.42;15.10;;;17.50;99.90;;;;;;4974829;28;20203;-64
2022/06/24 09:36:43;;;;;;;28.85;15.77;;;17.40;99.90;;;;;;4974483;28;20200;-64
2022/06/24 09:39:14;;;;;;;22.80;14.65;;;17.20;99.90;;;;;;4974631;28;20215;-65
2022/06/24 09:41:48;;;;;;;28.83;17.10;;;17.10;99.90;;;;;;4974442;28;20172;-64
2022/06/24 09:44:15;;;;;;;25.70;15.48;;;17.30;99.90;;;;;;4974511;28;20175;-65
2022/06/24 09:46:41;;;;;;;28.90;16.20;;;17.30;99.90;;;;;;4974298;28;20180;-64
2022/06/24 09:49:20;;;;;;;25.40;15.40;;;17.50;99.90;;;;;;4974307;28;20654;-64
2022/06/24 09:51:45;;;;;;;25.15;15.55;;;17.80;99.90;;;;;;4974244;28;20179;-64
2022/06/24 09:54:17;;;;;;;24.63;14.30;;;18.00;99.90;;;;;;4974199;28;20176;-65
2022/06/24 09:56:46;;;;;;;24.15;13.90;;;18.00;99.90;;;;;;4974032;28;20172;-64
2022/06/24 10:01:59;;;;;;;18.73;12.27;;;17.90;99.90;;;;;;4974359;28;20267;-65
2022/06/24 10:04:27;;;;;;;23.92;12.68;;;17.60;99.90;;;;;;4974040;28;20175;-64
2022/06/24 10:06:55;;;;;;;21.80;13.27;;;17.40;99.90;;;;;;4973788;28;20219;-64
2022/06/24 10:09:25;;;;;;;22.88;12.95;;;17.40;99.90;;;;;;4973774;28;20183;-65
2022/06/24 10:11:54;;;;;;;19.80;11.10;;;17.50;99.90;;;;;;4973912;28;20176;-64
2022/06/24 10:14:20;;;;;;;16.27;8.57;;;17.50;99.90;;;;;;4973839;28;20971;-64
2022/06/24 10:16:48;;;;;;;15.50;8.43;;;17.50;99.90;;;;;;4973863;28;20180;-65
2022/06/24 10:19:17;;;;;;;14.57;8.40;;;17.50;99.90;;;;;;4973929;28;20180;-65
2022/06/24 10:21:42;;;;;;;15.30;9.48;;;17.40;99.90;;;;;;4973741;28;20219;-64
2022/06/24 10:24:13;;;;;;;17.77;8.48;;;17.50;99.90;;;;;;4973429;28;20269;-64
2022/06/24 10:26:41;;;;;;;11.15;6.63;;;17.60;99.90;;;;;;4973492;28;20262;-64
2022/06/24 10:29:07;;;;;;;18.38;7.80;;;17.50;99.90;;;;;;4972933;28;20662;-65
2022/06/24 10:31:56;;;;;;;10.82;6.28;;;17.60;99.90;;;;;;4973396;28;20188;-65
2022/06/24 10:34:22;;;;;;;11.82;4.50;;;17.50;99.90;;;;;;4973373;28;20180;-64
2022/06/24 10:36:52;;;;;;;8.15;4.57;;;17.40;99.90;;;;;;4973455;28;20239;-65
2022/06/24 10:39:21;;;;;;;5.50;4.25;;;17.30;99.90;;;;;;4973289;28;20191;-64
2022/06/24 10:41:57;;;;;;;4.43;3.30;;;17.40;99.90;;;;;;4973302;28;20211;-64
2022/06/24 10:44:28;;;;;;;9.52;3.83;;;17.20;99.90;;;;;;4973339;28;20673;-64
2022/06/24 10:47:05;;;;;;;9.00;3.58;;;17.10;99.90;;;;;;4973301;28;20247;-65
2022/06/24 10:49:50;;;;;;;9.73;4.45;;;17.10;99.90;;;;;;4973313;28;20523;-64
2022/06/24 10:52:34;;;;;;;7.65;5.40;;;17.10;99.90;;;;;;4973245;28;20175;-64
2022/06/24 10:55:18;;;;;;;8.05;5.32;;;17.30;99.90;;;;;;4973209;28;20275;-64
2022/06/24 10:57:48;;;;;;;10.65;6.05;;;17.50;99.90;;;;;;4972961;28;20299;-65
2022/06/24 11:00:15;;;;;;;9.20;6.28;;;17.80;99.90;;;;;;4972922;28;20164;-64
2022/06/24 11:02:42;;;;;;;11.25;6.28;;;18.40;99.90;;;;;;4973026;28;20188;-65
2022/06/24 11:05:15;;;;;;;11.38;6.38;;;18.60;99.90;;;;;;4972935;28;20310;-65
2022/06/24 11:07:45;;;;;;;9.02;5.95;;;18.80;99.90;;;;;;4973793;28;20172;-65
2022/06/24 11:10:18;;;;;;;9.20;5.75;;;18.90;99.90;;;;;;4973428;28;20207;-65
2022/06/24 11:13:04;;;;;;;12.05;6.43;;;18.80;99.90;;;;;;4973536;28;20220;-64
2022/06/24 11:15:45;;;;;;;16.88;6.10;;;18.70;99.90;;;;;;4972888;28;20188;-64
2022/06/24 11:18:23;;;;;;;10.43;6.18;;;18.90;99.90;;;;;;4972999;28;20219;-65
2022/06/24 11:20:55;;;;;;;10.48;6.70;;;18.90;99.90;;;;;;4972539;28;20372;-65
2022/06/24 11:23:24;;;;;;;11.68;5.38;;;18.80;99.90;;;;;;4972624;28;20198;-65
2022/06/24 11:25:56;;;;;;;14.57;6.22;;;18.90;99.90;;;;;;4972674;28;20255;-65
2022/06/24 11:28:32;;;;;;;12.23;6.10;;;18.90;99.90;;;;;;4972535;28;20176;-65
2022/06/24 11:31:22;;;;;;;12.02;6.32;;;18.80;99.90;;;;;;4972476;28;20646;-65
2022/06/24 11:34:06;;;;;;;11.73;6.38;;;18.90;99.90;;;;;;4972660;28;20172;-64
2022/06/24 11:36:33;;;;;;;12.43;5.53;;;18.90;99.90;;;;;;4972305;28;20168;-65
2022/06/24 11:39:03;;;;;;;20.92;5.85;;;18.80;99.90;;;;;;4971911;28;20191;-64
2022/06/24 11:41:31;;;;;;;15.23;5.68;;;18.60;99.90;;;;;;4971949;28;20258;-64
2022/06/24 11:43:58;;;;;;;9.73;5.60;;;18.50;99.90;;;;;;4972236;28;20561;-64
2022/06/24 11:46:23;;;;;;;9.40;6.03;;;18.60;99.90;;;;;;4972267;28;20172;-64
2022/06/24 11:48:49;;;;;;;13.27;6.53;;;;;;;;;;4972239;28;20175;-64
2022/06/24 11:51:22;;;;;;;13.02;6.38;;;18.60;99.90;;;;;;4972124;28;20176;-66
2022/06/24 11:53:55;;;;;;;10.75;6.03;;;19.10;99.90;;;;;;4972049;28;20172;-66
2022/06/24 11:56:21;;;;;;;15.70;6.57;;;19.50;99.90;;;;;;4972100;28;20175;-65
2022/06/24 11:58:47;;;;;;;12.63;6.35;;;19.80;99.90;;;;;;4972261;28;20227;-65
2022/06/24 12:01:13;;;;;;;9.45;5.35;;;19.90;99.90;;;;;;4972125;28;20574;-65
2022/06/24 12:03:39;;;;;;;11.38;5.05;;;19.70;99.90;;;;;;4972467;28;20226;-65
2022/06/24 12:06:05;;;;;;;6.55;3.55;;;20.00;99.90;;;;;;4971937;28;20682;-64
2022/06/24 12:08:30;;;;;;;5.72;3.08;;;19.80;99.90;;;;;;4972022;28;20202;-65
2022/06/24 12:10:56;;;;;;;8.52;3.50;;;19.70;99.90;;;;;;4971894;28;20187;-65
2022/06/24 12:13:27;;;;;;;5.93;3.30;;;19.60;99.90;;;;;;4972107;28;20172;-65
2022/06/24 12:15:54;;;;;;;9.50;4.35;;;19.80;99.90;;;;;;4971985;28;20266;-65
2022/06/24 12:18:22;;;;;;;9.93;3.80;;;19.80;99.90;;;;;;4971668;28;20211;-64
2022/06/24 12:21:00;;;;;;;11.52;4.85;;;19.90;99.90;;;;;;4971920;28;20176;-64
2022/06/24 12:23:34;;;;;;;10.85;4.75;;;20.20;99.90;;;;;;4971869;28;20191;-64
2022/06/24 12:26:12;;;;;;;9.35;4.35;;;20.20;99.90;;;;;;4971932;28;20626;-65
2022/06/24 12:28:37;;;;;;;9.70;4.43;;;21.00;99.90;;;;;;4971912;28;20175;-64
2022/06/24 12:31:03;;;;;;;8.23;4.90;;;;;;;;;;4971904;28;20750;-65
2022/06/24 12:33:48;;;;;;;9.38;4.40;;;20.80;99.90;;;;;;4971742;28;20180;-65
2022/06/24 12:36:16;;;;;;;8.82;4.63;;;20.80;99.90;;;;;;4971695;28;20228;-65
2022/06/24 12:38:48;;;;;;;6.55;4.38;;;20.70;99.90;;;;;;4971676;28;20243;-65
2022/06/24 12:41:18;;;;;;;11.60;5.22;;;21.10;99.90;;;;;;4971913;28;20178;-66
2022/06/24 12:43:54;;;;;;;9.98;4.38;;;21.40;99.90;;;;;;4971756;28;20725;-65
2022/06/24 12:46:21;;;;;;;14.85;5.10;;;21.90;99.90;;;;;;4970319;28;20225;-65
2022/06/24 12:51:31;;;;;;;10.05;4.97;;;22.20;99.90;;;;;;4973594;28;20676;-65
2022/06/24 12:53:58;;;;;;;8.10;4.25;;;21.90;99.90;;;;;;4975228;28;20195;-65